Provisional Data: Trout Run near Shawville, PA


Please select a monitoring station.
Please select start date.
Please select start date.

Toggle Unit: C/F Toggle Unit: C/F
Sample Time Temperature (C) Temperature (F) Specific Conductivity (mS/cm) pH   Turbidity (NTU+) DO (mg/L)
8/1/2022 12:00:00 AM 19.14 66.452 0.07 6.48 1.11 8.63
8/1/2022 12:15:00 AM 19.13 66.434 0.07 6.48 1.02 8.62
8/1/2022 12:30:00 AM 19.12 66.416 0.07 6.48 1.28 8.63
8/1/2022 12:45:00 AM 19.11 66.398 0.071 6.49 1.2 8.64
8/1/2022 1:00:00 AM 19.09 66.362 0.071 6.43 1.03 8.63
8/1/2022 1:15:00 AM 19.08 66.344 0.071 6.48 1.1 8.64
8/1/2022 1:30:00 AM 19.07 66.326 0.071 6.48 1.23 8.63
8/1/2022 1:45:00 AM 19.04 66.272 0.071 6.48 1.18 8.66
8/1/2022 2:00:00 AM 19.02 66.236 0.071 6.46 0.96 8.66
8/1/2022 2:15:00 AM 18.99 66.182 0.071 6.48 1.28 8.65
8/1/2022 2:30:00 AM 18.96 66.128 0.072 6.47 1.02 8.63
8/1/2022 2:45:00 AM 18.93 66.074 0.072 6.48 0.94 8.66
8/1/2022 3:00:00 AM 18.89 66.002 0.072 6.48 1.07 8.66
8/1/2022 3:15:00 AM 18.86 65.948 0.072 6.48 1.06 8.65
8/1/2022 3:30:00 AM 18.83 65.894 0.072 6.48 1.01 8.68
8/1/2022 3:45:00 AM 18.8 65.84 0.072 6.48 1.02 8.68
8/1/2022 4:00:00 AM 18.77 65.786 0.072 6.47 1.01 8.67
8/1/2022 4:15:00 AM 18.75 65.75 0.073 6.48 1.18 8.68
8/1/2022 4:30:00 AM 18.72 65.696 0.073 6.47 1.08 8.67
8/1/2022 4:45:00 AM 18.7 65.66 0.073 6.48 1.05 8.69
8/1/2022 5:00:00 AM 18.67 65.606 0.073 6.47 1.14 8.7
8/1/2022 5:15:00 AM 18.65 65.57 0.073 6.48 1.02 8.7
8/1/2022 5:30:00 AM 18.63 65.534 0.073 6.47 1.06 8.71
8/1/2022 5:45:00 AM 18.6 65.48 0.073 6.47 1.05 8.73
8/1/2022 6:00:00 AM 18.58 65.444 0.074 6.47 1.15 8.72
8/1/2022 6:15:00 AM 18.56 65.408 0.074 6.46 1.15 8.73
8/1/2022 6:30:00 AM 18.55 65.39 0.074 6.47 1.14 8.74
8/1/2022 6:45:00 AM 18.53 65.354 0.074 6.47 1.16 8.74
8/1/2022 7:00:00 AM 18.51 65.318 0.074 6.48 1.17 8.77
8/1/2022 7:15:00 AM 18.51 65.318 0.074 6.48 1.05 8.77
8/1/2022 7:30:00 AM 18.49 65.282 0.074 6.48 1.08 8.79
8/1/2022 7:45:00 AM 18.48 65.264 0.074 6.48 1.03 8.8
8/1/2022 8:00:00 AM 18.5 65.3 0.074 6.5 1.1 8.86
8/1/2022 8:15:00 AM 18.52 65.336 0.074 6.49 1.09 8.88
8/1/2022 8:30:00 AM 18.54 65.372 0.074 6.49 1.06 8.87
8/1/2022 8:45:00 AM 18.56 65.408 0.074 6.49 1.04 8.87
8/1/2022 9:00:00 AM 18.59 65.462 0.074 6.49 1.08 8.91
8/1/2022 9:15:00 AM 18.62 65.516 0.074 6.51 1.11 8.89
8/1/2022 9:30:00 AM 18.72 65.696 0.074 6.51 1.1 8.94
8/1/2022 9:45:00 AM 18.89 66.002 0.074 6.55 1.06 8.99
8/1/2022 10:00:00 AM 18.98 66.164 0.074 6.53 1.13 8.94
8/1/2022 10:15:00 AM 19 66.2 0.074 6.55 1.08 8.94
8/1/2022 10:30:00 AM 19.03 66.254 0.074 6.56 1.05 8.96
8/1/2022 10:45:00 AM 19.04 66.272 0.074 6.56 1.07 8.94
8/1/2022 11:00:00 AM 19.1 66.38 0.074 6.56 1.11 8.92
8/1/2022 11:15:00 AM 19.26 66.668 0.074 6.55 1.11 8.91
8/1/2022 11:30:00 AM 19.51 67.118 0.074 6.58 1.15 8.93
8/1/2022 11:45:00 AM 19.61 67.298 0.074 6.54 1.01 8.93
8/1/2022 12:00:00 PM 19.88 67.784 0.074 6.59 1.53 8.9
8/1/2022 12:15:00 PM 20.04 68.07201 0.074 6.59 1.03 8.83
8/1/2022 12:30:00 PM 20.22 68.396 0.074 6.59 1.02 8.82
8/1/2022 12:45:00 PM 20.38 68.684 0.074 6.57 0.98 8.79
8/1/2022 1:00:00 PM 20.36 68.648 0.074 6.59 0.93 8.76
8/1/2022 1:15:00 PM 20.46 68.828 0.074 6.56 1.03 8.77
8/1/2022 1:30:00 PM 20.63 69.134 0.074 6.6 1.01 8.73
8/1/2022 1:45:00 PM 20.76 69.368 0.074 6.6 1.1 8.72
8/1/2022 2:00:00 PM 20.82 69.476 0.074 6.59 1.07 8.69
8/1/2022 2:15:00 PM 20.8 69.44 0.074 6.59 0.98 8.65
8/1/2022 2:30:00 PM 20.85 69.53 0.074 6.59 0.95 8.61
8/1/2022 2:45:00 PM 20.93 69.674 0.074 6.57 1.17 8.62
8/1/2022 3:00:00 PM 21.01 69.818 0.074 6.59 1.31 8.58
8/1/2022 3:15:00 PM 21.15 70.07 0.074 6.59 1.03 8.58
8/1/2022 3:30:00 PM 21.27 70.286 0.074 6.59 1.08 8.55
8/1/2022 3:45:00 PM 21.38 70.484 0.074 6.59 0.91 8.52
8/1/2022 4:00:00 PM 21.45 70.61 0.074 6.59 1 8.49
8/1/2022 4:15:00 PM 21.5 70.7 0.074 6.53 1.03 8.42
8/1/2022 4:30:00 PM 21.51 70.718 0.074 6.57 1.19 8.4
8/1/2022 4:45:00 PM -100000 -179968 -100000 -100000 -100000 -100000
8/1/2022 5:00:00 PM 21.48 70.664 0.074 6.56 1 8.37
8/1/2022 5:15:00 PM 21.46 70.628 0.074 6.56 0.88 8.38
8/1/2022 5:30:00 PM 21.43 70.574 0.074 6.56 1 8.36
8/1/2022 5:45:00 PM 21.4 70.52 0.074 6.55 0.91 8.36
8/1/2022 6:00:00 PM 21.38 70.484 0.074 6.54 0.93 8.34
8/1/2022 6:15:00 PM 21.37 70.466 0.074 6.53 0.95 8.35
8/1/2022 6:30:00 PM 21.35 70.43 0.074 6.52 1.07 8.33
8/1/2022 6:45:00 PM 21.32 70.376 0.074 6.51 1.79 8.33
8/1/2022 7:00:00 PM 21.29 70.32201 0.074 6.52 0.89 8.31
8/1/2022 7:15:00 PM 21.24 70.232 0.074 6.49 1.01 8.29
8/1/2022 7:30:00 PM 21.2 70.16 0.074 6.51 1.03 8.28
8/1/2022 7:45:00 PM 21.16 70.088 0.074 6.48 1.01 8.27
8/1/2022 8:00:00 PM 21.12 70.016 0.074 6.49 0.91 8.25
8/1/2022 8:15:00 PM 21.09 69.962 0.073 6.49 0.94 8.23
8/1/2022 8:30:00 PM 21.06 69.908 0.073 6.48 1 8.23
8/1/2022 8:45:00 PM 21.02 69.836 0.073 6.49 1 8.21
8/1/2022 9:00:00 PM 20.99 69.782 0.073 6.47 1.19 8.21
8/1/2022 9:15:00 PM 20.95 69.71 0.073 6.49 1.11 8.22
8/1/2022 9:30:00 PM 20.92 69.656 0.072 6.49 1.07 8.23
8/1/2022 9:45:00 PM 20.89 69.602 0.072 6.49 1.14 8.23
8/1/2022 10:00:00 PM 20.85 69.53 0.072 6.45 1.08 8.23
8/1/2022 10:15:00 PM 20.81 69.458 0.072 6.49 0.95 8.25
8/1/2022 10:30:00 PM 20.75 69.35 0.072 6.48 1.12 8.26
8/1/2022 10:45:00 PM 20.7 69.26 0.072 6.49 1.07 8.27
8/1/2022 11:00:00 PM 20.65 69.17 0.071 6.48 0.96 8.26
8/1/2022 11:15:00 PM 20.59 69.062 0.071 6.48 1.03 8.28
8/1/2022 11:30:00 PM 20.53 68.954 0.071 6.49 0.98 8.3
8/1/2022 11:45:00 PM 20.47 68.846 0.071 6.44 0.98 8.29
8/2/2022 12:00:00 AM 20.41 68.738 0.071 6.46 1.11 8.3
8/2/2022 12:15:00 AM 20.36 68.648 0.071 6.46 1.01 8.31
8/2/2022 12:30:00 AM 20.3 68.54 0.071 6.49 1.02 8.32
8/2/2022 12:45:00 AM 20.24 68.432 0.071 6.48 1.03 8.34
8/2/2022 1:00:00 AM 20.18 68.324 0.071 6.49 0.95 8.35
8/2/2022 1:15:00 AM 20.13 68.234 0.071 6.48 0.98 8.37
8/2/2022 1:30:00 AM 20.08 68.144 0.072 6.49 1 8.36
8/2/2022 1:45:00 AM 20.04 68.07201 0.072 6.49 1.05 8.39
8/2/2022 2:00:00 AM 20 68 0.072 6.49 1.09 8.39
8/2/2022 2:15:00 AM 19.95 67.91 0.072 6.48 1.3 8.39
8/2/2022 2:30:00 AM 19.91 67.838 0.072 6.48 1.04 8.4
8/2/2022 2:45:00 AM 19.87 67.766 0.072 6.48 1.35 8.42
8/2/2022 3:00:00 AM 19.83 67.694 0.072 6.47 1.36 8.42
8/2/2022 3:15:00 AM 19.79 67.622 0.072 6.48 1.03 8.42
8/2/2022 3:30:00 AM 19.75 67.55 0.072 6.48 1.18 8.43
8/2/2022 3:45:00 AM 19.72 67.496 0.073 6.47 1.06 8.44
8/2/2022 4:00:00 AM 19.7 67.46 0.073 6.47 0.96 8.42
8/2/2022 4:15:00 AM 19.67 67.406 0.073 6.46 1.07 8.46
8/2/2022 4:30:00 AM 19.66 67.388 0.073 6.47 0.97 8.44
8/2/2022 4:45:00 AM 19.64 67.352 0.073 6.47 1.02 8.45
8/2/2022 5:00:00 AM 19.62 67.316 0.073 6.47 1.05 8.47
8/2/2022 5:15:00 AM 19.6 67.28 0.073 6.44 0.98 8.46
8/2/2022 5:30:00 AM 19.59 67.262 0.074 6.47 1.01 8.48
8/2/2022 5:45:00 AM 19.57 67.226 0.074 6.46 1.05 8.47
8/2/2022 6:00:00 AM 19.54 67.172 0.074 6.46 1 8.48
8/2/2022 6:15:00 AM 19.51 67.118 0.074 6.47 1.08 8.48
8/2/2022 6:30:00 AM 19.49 67.082 0.074 6.46 1.17 8.51
8/2/2022 6:45:00 AM 19.47 67.046 0.074 6.46 1.09 8.52
8/2/2022 7:00:00 AM 19.46 67.028 0.074 6.44 1.03 8.52
8/2/2022 7:15:00 AM 19.45 67.01 0.074 6.45 1.05 8.55
8/2/2022 7:30:00 AM 19.45 67.01 0.074 6.47 1.02 8.57
8/2/2022 7:45:00 AM 19.46 67.028 0.074 6.48 0.94 8.59
8/2/2022 8:00:00 AM 19.48 67.064 0.074 6.47 1.01 8.61
8/2/2022 8:15:00 AM 19.52 67.136 0.074 6.47 1.05 8.66
8/2/2022 8:30:00 AM 19.56 67.208 0.074 6.47 1.19 8.65
8/2/2022 8:45:00 AM 19.62 67.316 0.075 6.49 1.07 8.67
8/2/2022 9:00:00 AM 19.67 67.406 0.075 6.5 1.07 8.66
8/2/2022 9:15:00 AM 19.76 67.568 0.074 6.54 0.96 8.7
8/2/2022 9:30:00 AM 19.86 67.748 0.074 6.51 1.08 8.71
8/2/2022 9:45:00 AM 19.98 67.964 0.074 6.56 1.19 8.71
8/2/2022 10:00:00 AM 20.05 68.09 0.074 6.56 1.03 8.71
8/2/2022 10:15:00 AM 20.22 68.396 0.074 6.57 1.2 8.71
8/2/2022 10:30:00 AM 20.47 68.846 0.074 6.58 1.11 8.71
8/2/2022 10:45:00 AM 20.49 68.882 0.075 6.58 0.96 8.67
8/2/2022 11:00:00 AM 20.62 69.116 0.075 6.59 1.06 8.68
8/2/2022 11:15:00 AM 20.91 69.638 0.075 6.6 1.06 8.69
8/2/2022 11:30:00 AM 21.07 69.926 0.075 6.6 1.03 8.66
8/2/2022 11:45:00 AM 21.1 69.98 0.075 6.6 1.09 8.65
8/2/2022 12:00:00 PM 21.43 70.574 0.075 6.59 0.94 8.63
8/2/2022 12:15:00 PM 21.57 70.826 0.075 6.6 1.04 8.58
8/2/2022 12:30:00 PM 21.47 70.646 0.075 6.59 0.92 8.55
8/2/2022 12:45:00 PM 21.65 70.97 0.075 6.61 1.02 8.56
8/2/2022 1:00:00 PM 21.79 71.222 0.075 6.6 0.9 8.5
8/2/2022 1:15:00 PM 21.95 71.51 0.075 6.59 1.09 8.46
8/2/2022 1:30:00 PM 21.83 71.294 0.075 6.59 1.07 8.42
8/2/2022 1:45:00 PM 21.97 71.546 0.075 6.55 0.93 8.41
8/2/2022 2:00:00 PM 21.94 71.492 0.075 6.59 0.84 8.39
8/2/2022 2:15:00 PM -100000 -179968 -100000 -100000 -100000 -100000
8/2/2022 2:30:00 PM -100000 -179968 -100000 -100000 -100000 -100000
8/2/2022 2:45:00 PM -100000 -179968 -100000 -100000 -100000 -100000
8/2/2022 3:00:00 PM 22.17 71.906 0.076 6.57 0.87 8.27
8/2/2022 3:15:00 PM -100000 -179968 -100000 -100000 -100000 -100000
8/2/2022 3:30:00 PM -100000 -179968 -100000 -100000 -100000 -100000
8/2/2022 3:45:00 PM -100000 -179968 -100000 -100000 -100000 -100000
8/2/2022 4:00:00 PM 22.39 72.302 0.076 6.58 1.11 8.24
8/2/2022 4:15:00 PM -100000 -179968 -100000 -100000 -100000 -100000
8/2/2022 4:30:00 PM 22.51 72.518 0.075 6.56 0.98 8.16
8/2/2022 4:45:00 PM 22.56 72.608 0.075 6.56 0.93 8.14
8/2/2022 5:00:00 PM 22.61 72.698 0.075 6.55 1.06 8.12
8/2/2022 5:15:00 PM 22.64 72.752 0.075 6.55 0.79 8.09
8/2/2022 5:30:00 PM -100000 -179968 -100000 -100000 -100000 -100000
8/2/2022 5:45:00 PM -100000 -179968 -100000 -100000 -100000 -100000
8/2/2022 6:00:00 PM -100000 -179968 -100000 -100000 -100000 -100000
8/2/2022 6:15:00 PM -100000 -179968 -100000 -100000 -100000 -100000
8/2/2022 6:30:00 PM -100000 -179968 -100000 -100000 -100000 -100000
8/2/2022 6:45:00 PM 22.33 72.194 0.074 6.53 1.02 8.06
8/2/2022 7:00:00 PM 22.24 72.032 0.074 6.52 1.12 8.05
8/2/2022 7:15:00 PM -100000 -179968 -100000 -100000 -100000 -100000
8/2/2022 7:30:00 PM -100000 -179968 -100000 -100000 -100000 -100000
8/2/2022 7:45:00 PM 21.99 71.582 0.074 6.51 0.94 8.07
8/2/2022 8:00:00 PM 21.91 71.438 0.074 6.51 0.87 8.1
8/2/2022 8:15:00 PM -100000 -179968 -100000 -100000 -100000 -100000
8/2/2022 8:30:00 PM 21.75 71.15 0.073 6.51 0.98 8.1
8/2/2022 8:45:00 PM 21.66 70.988 0.073 6.51 1.24 8.1
8/2/2022 9:00:00 PM 21.58 70.844 0.073 6.51 1.04 8.11
8/2/2022 9:15:00 PM 21.48 70.664 0.073 6.51 0.98 8.12
8/2/2022 9:30:00 PM 21.39 70.502 0.073 6.51 1.52 8.13
8/2/2022 9:45:00 PM 21.3 70.34 0.073 6.51 0.87 8.12
8/2/2022 10:00:00 PM 21.2 70.16 0.072 6.51 1.08 8.14
8/2/2022 10:15:00 PM 21.11 69.998 0.072 6.5 0.95 8.16
8/2/2022 10:30:00 PM 20.99 69.782 0.072 6.51 1 8.22
8/2/2022 10:45:00 PM 20.89 69.602 0.072 6.51 1.01 8.23
8/2/2022 11:00:00 PM 20.78 69.404 0.072 6.47 1.07 8.25
8/2/2022 11:15:00 PM 20.68 69.224 0.072 6.5 1.01 8.26
8/2/2022 11:30:00 PM 20.57 69.026 0.071 6.5 1.06 8.27
8/2/2022 11:45:00 PM 20.46 68.828 0.071 6.5 1.24 8.29
8/3/2022 12:00:00 AM 20.35 68.63 0.071 6.5 1.01 8.33
8/3/2022 12:15:00 AM 20.24 68.432 0.071 6.5 1 8.35
8/3/2022 12:30:00 AM 20.13 68.234 0.071 6.5 0.99 8.38
8/3/2022 12:45:00 AM 20.02 68.036 0.071 6.5 0.95 8.4
8/3/2022 1:00:00 AM 19.92 67.856 0.071 6.43 0.96 8.4
8/3/2022 1:15:00 AM 19.81 67.658 0.071 6.47 0.96 8.43
8/3/2022 1:30:00 AM 19.69 67.442 0.071 6.48 0.93 8.45
8/3/2022 1:45:00 AM 19.59 67.262 0.071 6.49 0.93 8.46
8/3/2022 2:00:00 AM 19.49 67.082 0.071 6.49 1.02 8.51
8/3/2022 2:15:00 AM 19.31 66.758 0.071 6.49 0.96 8.52
8/3/2022 2:30:00 AM 19.29 66.722 0.071 6.49 1.2 8.53
8/3/2022 2:45:00 AM 19.18 66.524 0.071 6.46 1.08 8.54
8/3/2022 3:00:00 AM 19.08 66.344 0.071 6.49 1.07 8.58
8/3/2022 3:15:00 AM 18.98 66.164 0.071 6.47 1.05 8.59
8/3/2022 3:30:00 AM 18.88 65.984 0.071 6.49 0.98 8.62
8/3/2022 3:45:00 AM 18.78 65.804 0.072 6.49 1.15 8.65
8/3/2022 4:00:00 AM 18.69 65.642 0.072 6.49 1.16 8.65
8/3/2022 4:15:00 AM 18.59 65.462 0.072 6.49 0.91 8.67
8/3/2022 4:30:00 AM 18.49 65.282 0.072 6.49 1.09 8.68
8/3/2022 4:45:00 AM 18.39 65.102 0.072 6.49 1.05 8.7
8/3/2022 5:00:00 AM 18.3 64.94 0.072 6.48 1.06 8.72
8/3/2022 5:15:00 AM 18.2 64.76 0.072 6.48 1.08 8.74
8/3/2022 5:30:00 AM 18.1 64.58 0.072 6.48 0.96 8.77
8/3/2022 5:45:00 AM 18 64.4 0.072 6.48 1.08 8.78
8/3/2022 6:00:00 AM 17.91 64.238 0.072 6.48 1.18 8.8
8/3/2022 6:15:00 AM 17.82 64.076 0.073 6.49 1.21 8.82
8/3/2022 6:30:00 AM 17.73 63.914 0.073 6.48 1.22 8.85
8/3/2022 6:45:00 AM 17.65 63.77 0.073 6.49 1.01 8.89
8/3/2022 7:00:00 AM 17.58 63.644 0.073 6.47 1.1 8.9
8/3/2022 7:15:00 AM 17.5 63.5 0.073 6.49 1.15 8.93
8/3/2022 7:30:00 AM 17.43 63.374 0.073 6.48 0.93 8.96
8/3/2022 7:45:00 AM 17.38 63.284 0.073 6.5 1.06 8.99
8/3/2022 8:00:00 AM 17.35 63.23 0.073 6.5 1.08 9.01
8/3/2022 8:15:00 AM -100000 -179968 -100000 -100000 -100000 -100000
8/3/2022 8:30:00 AM 17.32 63.176 0.073 6.51 1.17 9.05
8/3/2022 8:45:00 AM 17.35 63.23 0.073 6.52 1.1 9.06
8/3/2022 9:00:00 AM 17.38 63.284 0.074 6.5 1.17 9.07
8/3/2022 9:15:00 AM 17.47 63.446 0.074 6.52 1.07 9.09
8/3/2022 9:30:00 AM 17.59 63.662 0.074 6.53 0.99 9.1
8/3/2022 9:45:00 AM 17.75 63.95 0.074 6.54 1.08 9.12
8/3/2022 10:00:00 AM 17.93 64.274 0.074 6.55 1.07 9.15
8/3/2022 10:15:00 AM -100000 -179968 -100000 -100000 -100000 -100000
8/3/2022 10:30:00 AM 18.44 65.192 0.074 6.55 1.03 9.1
8/3/2022 10:45:00 AM 18.76 65.768 0.074 6.56 1.06 9.08
8/3/2022 11:00:00 AM 19.07 66.326 0.074 6.57 1.16 9.07
8/3/2022 11:15:00 AM 19.32 66.776 0.074 6.58 1.13 9.04
8/3/2022 11:30:00 AM 19.58 67.244 0.074 6.54 1.13 8.99
8/3/2022 11:45:00 AM 19.82 67.676 0.074 6.54 1.27 8.97
8/3/2022 12:00:00 PM 20.06 68.108 0.074 6.56 1.07 8.93
8/3/2022 12:15:00 PM 20.22 68.396 0.074 6.56 1.01 8.88
8/3/2022 12:30:00 PM 20.38 68.684 0.074 6.57 1.03 8.85
8/3/2022 12:45:00 PM 20.5 68.9 0.074 6.59 1.01 8.8
8/3/2022 1:00:00 PM -100000 -179968 -100000 -100000 -100000 -100000
8/3/2022 1:15:00 PM 20.8 69.44 0.074 6.59 0.95 8.74
8/3/2022 1:30:00 PM 20.89 69.602 0.074 6.58 1.19 8.69
8/3/2022 1:45:00 PM 20.98 69.764 0.074 6.58 1.08 8.65
8/3/2022 2:00:00 PM -100000 -179968 -100000 -100000 -100000 -100000
8/3/2022 2:15:00 PM 21.16 70.088 0.074 6.58 0.96 8.58
8/3/2022 2:30:00 PM -100000 -179968 -100000 -100000 -100000 -100000
8/3/2022 2:45:00 PM -100000 -179968 -100000 -100000 -100000 -100000
8/3/2022 3:00:00 PM -100000 -179968 -100000 -100000 -100000 -100000
8/3/2022 3:15:00 PM 21.51 70.718 0.075 6.56 2.15 8.43
8/3/2022 3:30:00 PM 21.59 70.862 0.075 6.56 1 8.38
8/3/2022 3:45:00 PM 21.71 71.078 0.075 6.55 1.07 8.33
8/3/2022 4:00:00 PM 21.87 71.366 0.075 6.55 0.99 8.3
8/3/2022 4:15:00 PM 21.98 71.564 0.075 6.54 0.97 8.24
8/3/2022 4:30:00 PM 22.08 71.744 0.075 6.54 0.99 8.21
8/3/2022 4:45:00 PM 22.18 71.924 0.075 6.54 1.02 8.18
8/3/2022 5:00:00 PM -100000 -179968 -100000 -100000 -100000 -100000
8/3/2022 5:15:00 PM -100000 -179968 -100000 -100000 -100000 -100000
8/3/2022 5:30:00 PM 22.44 72.392 0.075 6.53 0.9 8.1
8/3/2022 5:45:00 PM -100000 -179968 -100000 -100000 -100000 -100000
8/3/2022 6:00:00 PM 22.5 72.5 0.075 6.52 0.96 8.07
8/3/2022 6:15:00 PM -100000 -179968 -100000 -100000 -100000 -100000
8/3/2022 6:30:00 PM -100000 -179968 -100000 -100000 -100000 -100000
8/3/2022 6:45:00 PM -100000 -179968 -100000 -100000 -100000 -100000
8/3/2022 7:00:00 PM 22.33 72.194 0.075 6.51 0.99 8.08
8/3/2022 7:15:00 PM 22.26 72.068 0.075 6.51 1 8.07
8/3/2022 7:30:00 PM -100000 -179968 -100000 -100000 -100000 -100000
8/3/2022 7:45:00 PM -100000 -179968 -100000 -100000 -100000 -100000
8/3/2022 8:00:00 PM 22.04 71.672 0.075 6.45 0.93 8.08
8/3/2022 8:15:00 PM 21.98 71.564 0.075 6.48 1.1 8.08
8/3/2022 8:30:00 PM 21.93 71.474 0.075 6.48 1.42 8.04
8/3/2022 8:45:00 PM 21.88 71.384 0.075 6.48 1.13 8.08
8/3/2022 9:00:00 PM 21.85 71.33 0.074 6.48 1.11 8.07
8/3/2022 9:15:00 PM 21.81 71.258 0.074 6.49 0.93 8.07
8/3/2022 9:30:00 PM 21.78 71.204 0.074 6.49 0.88 8.09
8/3/2022 9:45:00 PM 21.75 71.15 0.074 6.48 1.26 8.09
8/3/2022 10:00:00 PM 21.71 71.078 0.073 6.49 0.92 8.1
8/3/2022 10:15:00 PM 21.68 71.024 0.073 6.5 1.09 8.11
8/3/2022 10:30:00 PM 21.63 70.934 0.073 6.49 1.05 8.09
8/3/2022 10:45:00 PM 21.59 70.862 0.073 6.49 0.86 8.12
8/3/2022 11:00:00 PM 21.54 70.772 0.073 6.45 0.91 8.11
8/3/2022 11:15:00 PM 21.48 70.664 0.072 6.49 0.99 8.14
8/3/2022 11:30:00 PM 21.43 70.574 0.072 6.49 0.89 8.15
8/3/2022 11:45:00 PM 21.38 70.484 0.072 6.49 0.97 8.15
8/4/2022 12:00:00 AM 21.33 70.394 0.072 6.49 0.89 8.13
8/4/2022 12:15:00 AM 21.27 70.286 0.072 6.49 0.97 8.17
8/4/2022 12:30:00 AM 21.21 70.17799 0.072 6.47 0.91 8.18
8/4/2022 12:45:00 AM 21.16 70.088 0.072 6.48 0.91 8.19
8/4/2022 1:00:00 AM 21.1 69.98 0.072 6.49 0.92 8.21
8/4/2022 1:15:00 AM 21.04 69.872 0.071 6.48 0.94 8.22
8/4/2022 1:30:00 AM 20.99 69.782 0.071 6.47 0.94 8.24
8/4/2022 1:45:00 AM 20.93 69.674 0.071 6.47 0.89 8.21
8/4/2022 2:00:00 AM 20.88 69.584 0.071 6.46 1.03 8.21
8/4/2022 2:15:00 AM 20.82 69.476 0.072 6.47 1.01 8.24
8/4/2022 2:30:00 AM 20.76 69.368 0.072 6.46 1.04 8.25
8/4/2022 2:45:00 AM 20.7 69.26 0.072 6.47 0.94 8.25
8/4/2022 3:00:00 AM 20.64 69.152 0.072 6.47 0.88 8.27
8/4/2022 3:15:00 AM 20.59 69.062 0.072 6.48 1.03 8.28
8/4/2022 3:30:00 AM 20.53 68.954 0.072 6.47 1.01 8.28
8/4/2022 3:45:00 AM 20.5 68.9 0.072 6.45 0.97 8.3
8/4/2022 4:00:00 AM 20.44 68.792 0.072 6.48 1.01 8.3
8/4/2022 4:15:00 AM 20.4 68.72 0.072 6.41 0.92 8.33
8/4/2022 4:30:00 AM 20.35 68.63 0.073 6.48 0.98 8.34
8/4/2022 4:45:00 AM 20.31 68.558 0.073 6.45 0.87 8.35
8/4/2022 5:00:00 AM 20.26 68.468 0.073 6.47 0.92 8.34
8/4/2022 5:15:00 AM 20.21 68.378 0.073 6.47 0.85 8.35
8/4/2022 5:30:00 AM 20.17 68.306 0.073 6.47 0.98 8.37
8/4/2022 5:45:00 AM 20.13 68.234 0.074 6.46 0.97 8.34
8/4/2022 6:00:00 AM 20.09 68.162 0.074 6.46 0.91 8.37
8/4/2022 6:15:00 AM 20.05 68.09 0.074 6.47 1 8.41
8/4/2022 6:30:00 AM 20.01 68.018 0.074 6.45 0.96 8.4
8/4/2022 6:45:00 AM 19.96 67.92799 0.075 6.44 1.09 8.44
8/4/2022 7:00:00 AM 19.93 67.874 0.075 6.46 0.99 8.46
8/4/2022 7:15:00 AM 19.9 67.82 0.075 6.47 1.07 8.47
8/4/2022 7:30:00 AM -100000 -179968 -100000 -100000 -100000 -100000
8/4/2022 7:45:00 AM 19.87 67.766 0.076 6.48 0.93 8.5
8/4/2022 8:00:00 AM 19.87 67.766 0.076 6.48 1.16 8.53
8/4/2022 8:15:00 AM 19.88 67.784 0.076 6.43 1.1 8.55
8/4/2022 8:30:00 AM 19.9 67.82 0.076 6.49 1.02 8.56
8/4/2022 8:45:00 AM 19.96 67.92799 0.076 6.49 0.98 8.6
8/4/2022 9:00:00 AM 20.02 68.036 0.077 6.5 0.96 8.58
8/4/2022 9:15:00 AM 20.16 68.288 0.077 6.51 1.06 8.64
8/4/2022 9:30:00 AM 20.26 68.468 0.077 6.52 0.93 8.65
8/4/2022 9:45:00 AM 20.32 68.576 0.077 6.52 0.92 8.65
8/4/2022 10:00:00 AM 20.36 68.648 0.077 6.51 1.14 8.64
8/4/2022 10:15:00 AM 20.58 69.044 0.077 6.53 1.03 8.67
8/4/2022 10:30:00 AM 20.93 69.674 0.077 6.54 0.98 8.67
8/4/2022 10:45:00 AM 21.3 70.34 0.077 6.55 0.97 8.65
8/4/2022 11:00:00 AM 21.49 70.682 0.077 6.55 0.94 8.62
8/4/2022 11:15:00 AM 21.53 70.754 0.078 6.56 0.94 8.56
8/4/2022 11:30:00 AM 21.48 70.664 0.078 6.56 1.12 8.53
8/4/2022 11:45:00 AM 21.48 70.664 0.077 6.55 1.07 8.51
8/4/2022 12:00:00 PM 21.5 70.7 0.074 6.64 5.06 8.37
8/4/2022 12:15:00 PM 21.35 70.43 0.072 6.58 2.96 8.28
8/4/2022 12:30:00 PM 21.23 70.214 0.072 6.55 1.86 8.24
8/4/2022 12:45:00 PM 21.21 70.17799 0.073 6.46 1.83 8.29
8/4/2022 1:00:00 PM 21.38 70.484 0.074 6.53 5.28 8.36
8/4/2022 1:15:00 PM 21.67 71.006 0.075 6.55 1.27 8.43
8/4/2022 1:30:00 PM 21.89 71.402 0.075 6.53 1.2 8.44
8/4/2022 1:45:00 PM 22.11 71.798 0.075 6.57 1.25 8.43
8/4/2022 2:00:00 PM 22.19 71.942 0.075 6.56 1.02 8.37
8/4/2022 2:15:00 PM -100000 -179968 -100000 -100000 -100000 -100000
8/4/2022 2:30:00 PM 22.38 72.284 0.075 6.56 1.08 8.33
8/4/2022 2:45:00 PM -100000 -179968 -100000 -100000 -100000 -100000
8/4/2022 3:00:00 PM -100000 -179968 -100000 -100000 -100000 -100000
8/4/2022 3:15:00 PM -100000 -179968 -100000 -100000 -100000 -100000
8/4/2022 3:30:00 PM -100000 -179968 -100000 -100000 -100000 -100000
8/4/2022 3:45:00 PM -100000 -179968 -100000 -100000 -100000 -100000
8/4/2022 4:00:00 PM -100000 -179968 -100000 -100000 -100000 -100000
8/4/2022 4:15:00 PM 23.15 73.67 0.081 6.56 0.85 8.16
8/4/2022 4:30:00 PM 23.23 73.814 0.083 6.54 0.95 8.13
8/4/2022 4:45:00 PM -100000 -179968 -100000 -100000 -100000 -100000
8/4/2022 5:00:00 PM -100000 -179968 -100000 -100000 -100000 -100000
8/4/2022 5:15:00 PM -100000 -179968 -100000 -100000 -100000 -100000
8/4/2022 5:30:00 PM -100000 -179968 -100000 -100000 -100000 -100000
8/4/2022 5:45:00 PM 23.1 73.58 0.092 6.53 0.95 7.93
8/4/2022 6:00:00 PM 23 73.4 0.093 6.52 0.88 7.91
8/4/2022 6:15:00 PM 22.9 73.22 0.093 6.52 0.94 7.9
8/4/2022 6:30:00 PM 22.79 73.022 0.094 6.53 0.88 7.94
8/4/2022 6:45:00 PM -100000 -179968 -100000 -100000 -100000 -100000
8/4/2022 7:00:00 PM 22.64 72.752 0.094 6.53 1.02 7.99
8/4/2022 7:15:00 PM 22.56 72.608 0.093 6.53 0.84 8.01
8/4/2022 7:30:00 PM 22.49 72.482 0.093 6.51 0.83 8.04
8/4/2022 7:45:00 PM 22.43 72.374 0.092 6.51 0.95 8.01
8/4/2022 8:00:00 PM 22.38 72.284 0.092 6.53 0.92 8.03
8/4/2022 8:15:00 PM 22.32 72.176 0.091 6.52 0.99 8.04
8/4/2022 8:30:00 PM 22.26 72.068 0.091 6.52 0.97 8.02
8/4/2022 8:45:00 PM 22.2 71.96 0.09 6.52 1.05 8
8/4/2022 9:00:00 PM 22.14 71.852 0.09 6.52 0.94 8.02
8/4/2022 9:15:00 PM 22.08 71.744 0.089 6.51 0.89 8.03
8/4/2022 9:30:00 PM 22.02 71.636 0.089 6.51 0.93 8.03
8/4/2022 9:45:00 PM 21.97 71.546 0.089 6.51 0.98 8.04
8/4/2022 10:00:00 PM 21.91 71.438 0.089 6.51 0.92 8.07
8/4/2022 10:15:00 PM 21.87 71.366 0.088 6.51 0.99 8.07
8/4/2022 10:30:00 PM 21.82 71.276 0.088 6.5 0.91 8.08
8/4/2022 10:45:00 PM 21.77 71.186 0.088 6.5 0.78 8.1
8/4/2022 11:00:00 PM 21.72 71.096 0.088 6.5 0.92 8.1
8/4/2022 11:15:00 PM 21.67 71.006 0.087 6.51 0.85 8.11
8/4/2022 11:30:00 PM 21.61 70.898 0.087 6.48 0.88 8.12
8/4/2022 11:45:00 PM 21.56 70.808 0.087 6.5 1.02 8.13
8/5/2022 12:00:00 AM 21.51 70.718 0.086 6.5 0.9 8.15
8/5/2022 12:15:00 AM 21.45 70.61 0.086 6.5 0.99 8.16
8/5/2022 12:30:00 AM 21.39 70.502 0.086 6.49 0.87 8.18
8/5/2022 12:45:00 AM 21.34 70.412 0.085 6.5 0.93 8.16
8/5/2022 1:00:00 AM 21.29 70.32201 0.085 6.49 0.9 8.2
8/5/2022 1:15:00 AM 21.24 70.232 0.085 6.5 0.98 8.21
8/5/2022 1:30:00 AM 21.19 70.142 0.085 6.48 0.99 8.18
8/5/2022 1:45:00 AM 21.13 70.034 0.085 6.49 0.94 8.19
8/5/2022 2:00:00 AM 21.08 69.944 0.084 6.48 0.9 8.22
8/5/2022 2:15:00 AM 21.04 69.872 0.084 6.49 0.97 8.21
8/5/2022 2:30:00 AM 20.99 69.782 0.084 6.49 1.07 8.23
8/5/2022 2:45:00 AM 20.95 69.71 0.084 6.49 0.88 8.24
8/5/2022 3:00:00 AM 20.9 69.62 0.084 6.47 0.89 8.27
8/5/2022 3:15:00 AM 20.85 69.53 0.084 6.48 0.98 8.25
8/5/2022 3:30:00 AM 20.81 69.458 0.084 6.48 0.97 8.25
8/5/2022 3:45:00 AM 20.77 69.386 0.084 6.48 0.96 8.3
8/5/2022 4:00:00 AM 20.73 69.314 0.084 6.48 1 8.29
8/5/2022 4:15:00 AM 20.69 69.242 0.084 6.48 0.83 8.29
8/5/2022 4:30:00 AM 20.66 69.188 0.084 6.48 0.92 8.29
8/5/2022 4:45:00 AM 20.62 69.116 0.084 6.45 1.01 8.3
8/5/2022 5:00:00 AM 20.59 69.062 0.084 6.48 0.92 8.34
8/5/2022 5:15:00 AM 20.56 69.008 0.084 6.44 1.07 8.34
8/5/2022 5:30:00 AM 20.53 68.954 0.084 6.47 1.05 8.34
8/5/2022 5:45:00 AM 20.5 68.9 0.085 6.44 0.98 8.35
8/5/2022 6:00:00 AM -100000 -179968 -100000 -100000 -100000 -100000
8/5/2022 6:15:00 AM 20.44 68.792 0.085 6.46 1.05 8.35
8/5/2022 6:30:00 AM 20.41 68.738 0.085 6.47 0.95 8.36
8/5/2022 6:45:00 AM -100000 -179968 -100000 -100000 -100000 -100000
8/5/2022 7:00:00 AM 20.37 68.666 0.085 6.47 0.97 8.37
8/5/2022 7:15:00 AM 20.35 68.63 0.085 6.46 1.07 8.41
8/5/2022 7:30:00 AM 20.34 68.612 0.085 6.47 1.25 8.41
8/5/2022 7:45:00 AM 20.33 68.594 0.085 6.47 1.02 8.42
8/5/2022 8:00:00 AM 20.33 68.594 0.085 6.47 0.97 8.43
8/5/2022 8:15:00 AM 20.32 68.576 0.085 6.47 1.12 8.43
8/5/2022 8:30:00 AM 20.33 68.594 0.085 6.47 1.06 8.48
8/5/2022 8:45:00 AM 20.34 68.612 0.085 6.47 0.91 8.49
8/5/2022 9:00:00 AM 20.36 68.648 0.085 6.44 1 8.52
8/5/2022 9:15:00 AM 20.38 68.684 0.085 6.48 1.01 8.54
8/5/2022 9:30:00 AM 20.41 68.738 0.085 6.5 1.1 8.58
8/5/2022 9:45:00 AM 20.45 68.81 0.085 6.45 0.95 8.57
8/5/2022 10:00:00 AM 20.49 68.882 0.085 6.51 1.01 8.59
8/5/2022 10:15:00 AM 20.54 68.972 0.085 6.5 0.96 8.64
8/5/2022 10:30:00 AM 20.6 69.08 0.085 6.53 1.06 8.66
8/5/2022 10:45:00 AM 20.68 69.224 0.085 6.54 0.9 8.68
8/5/2022 11:00:00 AM 20.76 69.368 0.084 6.56 0.97 8.69
8/5/2022 11:15:00 AM 20.87 69.566 0.084 6.56 1.02 8.69
8/5/2022 11:30:00 AM 20.97 69.746 0.084 6.57 1 8.71
8/5/2022 11:45:00 AM 21.03 69.854 0.084 6.58 0.92 8.68
8/5/2022 12:00:00 PM 21.13 70.034 0.084 6.59 0.96 8.67
8/5/2022 12:15:00 PM 21.25 70.25 0.084 6.54 1.04 8.69
8/5/2022 12:30:00 PM 21.36 70.448 0.084 6.59 0.98 8.66
8/5/2022 12:45:00 PM 21.51 70.718 0.084 6.56 1.04 8.66
8/5/2022 1:00:00 PM 21.69 71.042 0.084 6.6 1 8.64
8/5/2022 1:15:00 PM 21.75 71.15 0.084 6.6 0.98 8.59
8/5/2022 1:30:00 PM 21.8 71.24 0.083 6.57 1.18 8.58
8/5/2022 1:45:00 PM 21.98 71.564 0.083 6.61 0.95 8.59
8/5/2022 2:00:00 PM 22.13 71.834 0.083 6.61 0.91 8.54
8/5/2022 2:15:00 PM 22.25 72.05 0.083 6.6 0.93 8.52
8/5/2022 2:30:00 PM 22.36 72.248 0.082 6.6 0.93 8.5
8/5/2022 2:45:00 PM -100000 -179968 -100000 -100000 -100000 -100000
8/5/2022 3:00:00 PM 22.56 72.608 0.082 6.59 0.91 8.36
8/5/2022 3:15:00 PM 22.65 72.77 0.082 6.56 1 8.32
8/5/2022 3:30:00 PM -100000 -179968 -100000 -100000 -100000 -100000
8/5/2022 3:45:00 PM 22.82 73.076 0.082 6.55 0.94 8.25
8/5/2022 4:00:00 PM 22.88 73.184 0.082 6.56 0.94 8.18
8/5/2022 4:15:00 PM 22.97 73.346 0.081 6.56 0.86 8.21
8/5/2022 4:30:00 PM -100000 -179968 -100000 -100000 -100000 -100000
8/5/2022 4:45:00 PM 23.19 73.742 0.081 6.55 0.87 8.14
8/5/2022 5:00:00 PM -100000 -179968 -100000 -100000 -100000 -100000
8/5/2022 5:15:00 PM 23.35 74.03 0.081 6.53 0.83 8.09
8/5/2022 5:30:00 PM -100000 -179968 -100000 -100000 -100000 -100000
8/5/2022 5:45:00 PM 23.42 74.156 0.08 6.54 0.92 8.07
8/5/2022 6:00:00 PM 23.44 74.192 0.08 6.55 0.93 8.06
8/5/2022 6:15:00 PM -100000 -179968 -100000 -100000 -100000 -100000
8/5/2022 6:30:00 PM 23.39 74.102 0.08 6.54 0.82 8.05
8/5/2022 6:45:00 PM 23.33 73.994 0.08 6.53 0.88 8.03
8/5/2022 7:00:00 PM 23.25 73.85 0.08 6.52 0.89 8.01
8/5/2022 7:15:00 PM 23.18 73.724 0.08 6.51 0.83 7.97
8/5/2022 7:30:00 PM 23.11 73.598 0.08 6.51 1.05 7.98
8/5/2022 7:45:00 PM 23.06 73.508 0.08 6.5 0.85 7.97
8/5/2022 8:00:00 PM 23.02 73.436 0.079 6.5 0.89 7.97
8/5/2022 8:15:00 PM 22.97 73.346 0.079 6.5 0.96 7.95
8/5/2022 8:30:00 PM 22.93 73.274 0.079 6.49 1.09 7.95
8/5/2022 8:45:00 PM 22.9 73.22 0.079 6.46 1.02 7.97
8/5/2022 9:00:00 PM 22.87 73.166 0.079 6.49 1.33 7.95
8/5/2022 9:15:00 PM 22.85 73.13 0.079 6.48 0.91 7.96
8/5/2022 9:30:00 PM 22.82 73.076 0.079 6.47 0.94 7.95
8/5/2022 9:45:00 PM 22.78 73.004 0.078 6.49 0.92 7.98
8/5/2022 10:00:00 PM 22.75 72.95 0.078 6.47 0.93 7.97
8/5/2022 10:15:00 PM 22.68 72.824 0.075 6.49 1.38 8.04
8/5/2022 10:30:00 PM 22.61 72.698 0.073 6.57 1.82 7.98
8/5/2022 10:45:00 PM 22.57 72.626 0.073 6.52 1.53 7.93
8/5/2022 11:00:00 PM 22.54 72.57201 0.073 6.49 1.37 7.9
8/5/2022 11:15:00 PM 22.5 72.5 0.074 6.49 1.47 7.91
8/5/2022 11:30:00 PM 22.48 72.464 0.074 6.47 1.63 7.94
8/5/2022 11:45:00 PM 22.46 72.42799 0.074 6.49 1.25 7.93
8/6/2022 12:00:00 AM 22.43 72.374 0.073 6.48 1.31 7.97
8/6/2022 12:15:00 AM 22.4 72.32 0.073 6.48 1.28 7.94
8/6/2022 12:30:00 AM 22.37 72.266 0.072 6.48 1.16 8
8/6/2022 12:45:00 AM 22.34 72.212 0.072 6.48 1.64 8
8/6/2022 1:00:00 AM 22.31 72.158 0.074 6.47 1.17 7.99
8/6/2022 1:15:00 AM 22.27 72.086 0.076 6.48 1.14 8
8/6/2022 1:30:00 AM 22.23 72.014 0.078 6.48 1.15 8
8/6/2022 1:45:00 AM -100000 -179968 -100000 -100000 -100000 -100000
8/6/2022 2:00:00 AM 22.13 71.834 0.08 6.49 1.35 8.02
8/6/2022 2:15:00 AM 22.08 71.744 0.082 6.5 1.11 8.03
8/6/2022 2:30:00 AM 22.04 71.672 0.084 6.46 1.08 8.03
8/6/2022 2:45:00 AM 21.99 71.582 0.086 6.49 1.09 8
8/6/2022 3:00:00 AM 21.94 71.492 0.088 6.5 0.99 8.04
8/6/2022 3:15:00 AM 21.89 71.402 0.089 6.5 0.97 8.05
8/6/2022 3:30:00 AM 21.84 71.312 0.091 6.5 1.1 8.05
8/6/2022 3:45:00 AM 21.79 71.222 0.092 6.51 1.04 8.08
8/6/2022 4:00:00 AM -100000 -179968 -100000 -100000 -100000 -100000
8/6/2022 4:15:00 AM 21.7 71.06 0.096 6.52 1.1 8.12
8/6/2022 4:30:00 AM 21.66 70.988 0.097 6.51 1.18 8.12
8/6/2022 4:45:00 AM -100000 -179968 -100000 -100000 -100000 -100000
8/6/2022 5:00:00 AM 21.59 70.862 0.099 6.51 1.14 8.14
8/6/2022 5:15:00 AM 21.56 70.808 0.099 6.5 1.12 8.16
8/6/2022 5:30:00 AM 21.53 70.754 0.099 6.51 1 8.17
8/6/2022 5:45:00 AM 21.5 70.7 0.1 6.47 1 8.17
8/6/2022 6:00:00 AM 21.48 70.664 0.1 6.51 1.03 8.2
8/6/2022 6:15:00 AM 21.45 70.61 0.1 6.51 1.15 8.2
8/6/2022 6:30:00 AM 21.43 70.574 0.099 6.5 1.07 8.2
8/6/2022 6:45:00 AM 21.41 70.538 0.099 6.5 0.92 8.2
8/6/2022 7:00:00 AM 21.38 70.484 0.099 6.5 1.07 8.23
8/6/2022 7:15:00 AM 21.36 70.448 0.098 6.51 0.91 8.25
8/6/2022 7:30:00 AM 21.34 70.412 0.097 6.52 1.41 8.26
8/6/2022 7:45:00 AM 21.33 70.394 0.096 6.52 1.01 8.28
8/6/2022 8:00:00 AM 21.32 70.376 0.095 6.53 0.99 8.34
8/6/2022 8:15:00 AM 21.33 70.394 0.095 6.53 1.06 8.38
8/6/2022 8:30:00 AM 21.33 70.394 0.094 6.53 1.03 8.38
8/6/2022 8:45:00 AM 21.33 70.394 0.093 6.54 1.04 8.38
8/6/2022 9:00:00 AM 21.33 70.394 0.092 6.54 1.01 8.4
8/6/2022 9:15:00 AM 21.36 70.448 0.091 6.54 0.96 8.45
8/6/2022 9:30:00 AM 21.38 70.484 0.091 6.55 1.08 8.45
8/6/2022 9:45:00 AM 21.4 70.52 0.09 6.55 1.07 8.46
8/6/2022 10:00:00 AM 21.44 70.592 0.09 6.56 0.98 8.48
8/6/2022 10:15:00 AM 21.44 70.592 0.089 6.51 0.92 8.46
8/6/2022 10:30:00 AM 21.46 70.628 0.089 6.55 0.85 8.47
8/6/2022 10:45:00 AM 21.51 70.718 0.088 6.57 0.91 8.5
8/6/2022 11:00:00 AM 21.57 70.826 0.088 6.57 0.95 8.52
8/6/2022 11:15:00 AM 21.67 71.006 0.087 6.59 1.01 8.56
8/6/2022 11:30:00 AM 21.7 71.06 0.087 6.58 0.95 8.51
8/6/2022 11:45:00 AM 21.71 71.078 0.086 6.58 1.01 8.48
8/6/2022 12:00:00 PM 21.74 71.132 0.086 6.57 0.9 8.48
8/6/2022 12:15:00 PM 21.88 71.384 0.085 6.57 0.97 8.49
8/6/2022 12:30:00 PM 22.03 71.654 0.084 6.57 0.99 8.54
8/6/2022 12:45:00 PM -100000 -179968 -100000 -100000 -100000 -100000
8/6/2022 1:00:00 PM 22.24 72.032 0.084 6.6 0.91 8.49
8/6/2022 1:15:00 PM 22.31 72.158 0.083 6.58 0.96 8.48
8/6/2022 1:30:00 PM 22.36 72.248 0.083 6.57 0.92 8.46
8/6/2022 1:45:00 PM 22.46 72.42799 0.083 6.59 0.94 8.45
8/6/2022 2:00:00 PM 22.59 72.662 0.082 6.61 1.02 8.43
8/6/2022 2:15:00 PM 22.68 72.824 0.082 6.55 0.97 8.4
8/6/2022 2:30:00 PM 22.76 72.968 0.082 6.6 0.86 8.39
8/6/2022 2:45:00 PM 22.88 73.184 0.082 6.6 0.99 8.37
8/6/2022 3:00:00 PM -100000 -179968 -100000 -100000 -100000 -100000
8/6/2022 3:15:00 PM -100000 -179968 -100000 -100000 -100000 -100000
8/6/2022 3:30:00 PM -100000 -179968 -100000 -100000 -100000 -100000
8/6/2022 3:45:00 PM -100000 -179968 -100000 -100000 -100000 -100000
8/6/2022 4:00:00 PM -100000 -179968 -100000 -100000 -100000 -100000
8/6/2022 4:15:00 PM 23.29 73.922 0.081 6.58 1.05 8.12
8/6/2022 4:30:00 PM 23.32 73.976 0.081 6.56 0.88 8.09
8/6/2022 4:45:00 PM 23.38 74.084 0.081 6.56 0.91 8.06
8/6/2022 5:00:00 PM 23.4 74.12 0.081 6.54 0.87 8.03
8/6/2022 5:15:00 PM 23.47 74.246 0.081 6.55 0.77 8.05
8/6/2022 5:30:00 PM -100000 -179968 -100000 -100000 -100000 -100000
8/6/2022 5:45:00 PM 23.51 74.318 0.081 6.55 1.01 8.04
8/6/2022 6:00:00 PM 23.49 74.282 0.081 6.54 0.81 8
8/6/2022 6:15:00 PM 23.46 74.228 0.081 6.54 0.75 8
8/6/2022 6:30:00 PM 23.44 74.192 0.081 6.54 1.01 8
8/6/2022 6:45:00 PM 23.41 74.138 0.081 6.54 0.83 8.01
8/6/2022 7:00:00 PM 23.38 74.084 0.081 6.54 0.83 8.02
8/6/2022 7:15:00 PM 23.35 74.03 0.081 6.54 0.73 8.01
8/6/2022 7:30:00 PM 23.3 73.94 0.081 6.53 1.1 7.97
8/6/2022 7:45:00 PM 23.25 73.85 0.081 6.53 1.05 7.93
8/6/2022 8:00:00 PM 23.21 73.778 0.081 6.52 0.82 7.93
8/6/2022 8:15:00 PM 23.17 73.706 0.081 6.52 1.03 7.94
8/6/2022 8:30:00 PM 23.14 73.652 0.081 6.49 0.94 7.91
8/6/2022 8:45:00 PM 23.11 73.598 0.081 6.51 0.88 7.91
8/6/2022 9:00:00 PM 23.08 73.544 0.081 6.5 0.93 7.9
8/6/2022 9:15:00 PM 23.05 73.49 0.081 6.46 0.99 7.92
8/6/2022 9:30:00 PM 23.03 73.454 0.081 6.49 1.08 7.92
8/6/2022 9:45:00 PM 23.01 73.418 0.08 6.48 1.11 7.95
8/6/2022 10:00:00 PM 22.98 73.364 0.08 6.46 1.06 7.97
8/6/2022 10:15:00 PM 22.95 73.31 0.08 6.48 1.09 7.97
8/6/2022 10:30:00 PM 22.92 73.256 0.079 6.49 1.05 7.97
8/6/2022 10:45:00 PM 22.89 73.202 0.078 6.49 1.13 7.97
8/6/2022 11:00:00 PM 22.86 73.148 0.076 6.49 0.88 7.99
8/6/2022 11:15:00 PM 22.83 73.094 0.075 6.49 0.95 8
8/6/2022 11:30:00 PM 22.8 73.04 0.074 6.49 0.97 8.02
8/6/2022 11:45:00 PM 22.77 72.986 0.073 6.44 0.95 8.02
8/7/2022 12:00:00 AM 22.74 72.932 0.072 6.49 0.91 8.03
8/7/2022 12:15:00 AM 22.7 72.86 0.071 6.49 0.94 8.03
8/7/2022 12:30:00 AM 22.67 72.806 0.071 6.48 1.04 8.03
8/7/2022 12:45:00 AM 22.64 72.752 0.07 6.48 1.01 8.04
8/7/2022 1:00:00 AM 22.61 72.698 0.07 6.43 0.92 8.05
8/7/2022 1:15:00 AM 22.58 72.644 0.07 6.48 0.97 8.05
8/7/2022 1:30:00 AM 22.56 72.608 0.069 6.48 0.93 8.02
8/7/2022 1:45:00 AM 22.52 72.536 0.069 6.48 0.9 8.06
8/7/2022 2:00:00 AM 22.49 72.482 0.069 6.48 1 8.05
8/7/2022 2:15:00 AM 22.45 72.41 0.068 6.48 1.01 8.05
8/7/2022 2:30:00 AM 22.41 72.338 0.068 6.48 0.91 8.08
8/7/2022 2:45:00 AM 22.37 72.266 0.068 6.47 0.81 8.07
8/7/2022 3:00:00 AM 22.32 72.176 0.068 6.48 1.12 8.08
8/7/2022 3:15:00 AM 22.27 72.086 0.068 6.46 1.03 8.09
8/7/2022 3:30:00 AM 22.24 72.032 0.068 6.48 0.99 8.1
8/7/2022 3:45:00 AM 22.2 71.96 0.068 6.47 0.98 8.09
8/7/2022 4:00:00 AM 22.15 71.87 0.068 6.47 0.96 8.09
8/7/2022 4:15:00 AM 22.1 71.78 0.068 6.45 0.94 8.12
8/7/2022 4:30:00 AM 22.07 71.726 0.068 6.47 0.87 8.13
8/7/2022 4:45:00 AM 22.02 71.636 0.068 6.47 0.88 8.15
8/7/2022 5:00:00 AM 21.99 71.582 0.068 6.47 0.85 8.13
8/7/2022 5:15:00 AM 21.95 71.51 0.068 6.42 1.04 8.14
8/7/2022 5:30:00 AM 21.92 71.456 0.068 6.47 1.13 8.15
8/7/2022 5:45:00 AM 21.89 71.402 0.068 6.45 0.9 8.12
8/7/2022 6:00:00 AM 21.85 71.33 0.068 6.46 0.92 8.15
8/7/2022 6:15:00 AM 21.82 71.276 0.068 6.47 0.94 8.18
8/7/2022 6:30:00 AM 21.78 71.204 0.068 6.46 1.03 8.18
8/7/2022 6:45:00 AM 21.76 71.168 0.068 6.47 1 8.19
8/7/2022 7:00:00 AM 21.73 71.114 0.068 6.46 1.38 8.2
8/7/2022 7:15:00 AM 21.7 71.06 0.068 6.46 1.05 8.21
8/7/2022 7:30:00 AM 21.67 71.006 0.067 6.46 1.02 8.19
8/7/2022 7:45:00 AM 21.62 70.916 0.066 6.5 1.4 8.21
8/7/2022 8:00:00 AM 21.6 70.88 0.066 6.53 1.57 8.18
8/7/2022 8:15:00 AM 21.58 70.844 0.066 6.43 1.18 8.2
8/7/2022 8:30:00 AM -100000 -179968 -100000 -100000 -100000 -100000
8/7/2022 8:45:00 AM 21.57 70.826 0.067 6.43 1.12 8.25
8/7/2022 9:00:00 AM 21.58 70.844 0.067 6.46 1.06 8.27
8/7/2022 9:15:00 AM 21.61 70.898 0.067 6.47 1.31 8.32
8/7/2022 9:30:00 AM 21.62 70.916 0.066 6.48 1.08 8.32
8/7/2022 9:45:00 AM 21.62 70.916 0.067 6.48 1.04 8.34
8/7/2022 10:00:00 AM 21.65 70.97 0.067 6.49 1.09 8.36
8/7/2022 10:15:00 AM 21.68 71.024 0.067 6.47 1.04 8.38
8/7/2022 10:30:00 AM 21.72 71.096 0.068 6.52 1.07 8.41
8/7/2022 10:45:00 AM 21.78 71.204 0.069 6.52 1.1 8.4
8/7/2022 11:00:00 AM 21.86 71.348 0.07 6.56 1.09 8.47
8/7/2022 11:15:00 AM 21.97 71.546 0.072 6.52 1.29 8.48
8/7/2022 11:30:00 AM 22.01 71.618 0.073 6.57 1.01 8.45
8/7/2022 11:45:00 AM 22.02 71.636 0.074 6.57 0.96 8.38
8/7/2022 12:00:00 PM 22.17 71.906 0.076 6.57 1.03 8.39
8/7/2022 12:15:00 PM 22.3 72.14 0.077 6.58 1.83 8.41
8/7/2022 12:30:00 PM 22.3 72.14 0.078 6.59 1 8.36
8/7/2022 12:45:00 PM 22.36 72.248 0.08 6.57 0.92 8.31
8/7/2022 1:00:00 PM 22.48 72.464 0.081 6.59 0.97 8.36
8/7/2022 1:15:00 PM 22.74 72.932 0.082 6.6 0.92 8.36
8/7/2022 1:30:00 PM 22.76 72.968 0.083 6.6 1.01 8.33
8/7/2022 1:45:00 PM 22.98 73.364 0.083 6.61 0.96 8.32
8/7/2022 2:00:00 PM 23.12 73.616 0.083 6.6 0.85 8.29
8/7/2022 2:15:00 PM -100000 -179968 -100000 -100000 -100000 -100000
8/7/2022 2:30:00 PM 23.34 74.012 0.083 6.61 0.89 8.23
8/7/2022 2:45:00 PM 23.37 74.066 0.082 6.6 1.08 8.18
8/7/2022 3:00:00 PM -100000 -179968 -100000 -100000 -100000 -100000
8/7/2022 3:15:00 PM -100000 -179968 -100000 -100000 -100000 -100000
8/7/2022 3:30:00 PM 23.61 74.498 0.081 6.58 0.88 8.08
8/7/2022 3:45:00 PM 23.74 74.732 0.081 6.59 0.86 8.03
8/7/2022 4:00:00 PM 23.85 74.93 0.08 6.58 0.89 8.03
8/7/2022 4:15:00 PM -100000 -179968 -100000 -100000 -100000 -100000
8/7/2022 4:30:00 PM 24.01 75.218 0.08 6.57 0.86 7.97
8/7/2022 4:45:00 PM 24.08 75.344 0.08 6.56 0.97 7.95
8/7/2022 5:00:00 PM 24.15 75.47 0.08 6.57 0.83 7.93
8/7/2022 5:15:00 PM -100000 -179968 -100000 -100000 -100000 -100000
8/7/2022 5:30:00 PM -100000 -179968 -100000 -100000 -100000 -100000
8/7/2022 5:45:00 PM -100000 -179968 -100000 -100000 -100000 -100000
8/7/2022 6:00:00 PM -100000 -179968 -100000 -100000 -100000 -100000
8/7/2022 6:15:00 PM -100000 -179968 -100000 -100000 -100000 -100000
8/7/2022 6:30:00 PM 24.09 75.362 0.08 6.55 0.82 7.87
8/7/2022 6:45:00 PM -100000 -179968 -100000 -100000 -100000 -100000
8/7/2022 7:00:00 PM 24.03 75.254 0.079 6.53 0.83 7.86
8/7/2022 7:15:00 PM 24 75.2 0.079 6.54 0.8 7.86
8/7/2022 7:30:00 PM 23.97 75.146 0.079 6.53 1.12 7.84
8/7/2022 7:45:00 PM 23.95 75.11 0.079 6.53 0.84 7.83
8/7/2022 8:00:00 PM 23.93 75.074 0.079 6.5 0.8 7.82
8/7/2022 8:15:00 PM -100000 -179968 -100000 -100000 -100000 -100000
8/7/2022 8:30:00 PM 23.89 75.002 0.079 6.5 0.99 7.77
8/7/2022 8:45:00 PM 23.86 74.948 0.078 6.49 0.86 7.78
8/7/2022 9:00:00 PM 23.83 74.894 0.078 6.51 0.9 7.78
8/7/2022 9:15:00 PM 23.79 74.82201 0.078 6.51 0.95 7.76
8/7/2022 9:30:00 PM 23.75 74.75 0.078 6.51 0.92 7.76
8/7/2022 9:45:00 PM 23.7 74.66 0.077 6.52 0.93 7.78
8/7/2022 10:00:00 PM 23.64 74.552 0.077 6.45 0.97 7.78
8/7/2022 10:15:00 PM 23.59 74.462 0.077 6.51 1.07 7.79
8/7/2022 10:30:00 PM 23.53 74.354 0.076 6.51 0.84 7.83
8/7/2022 10:45:00 PM 23.47 74.246 0.076 6.52 0.95 7.83
8/7/2022 11:00:00 PM 23.41 74.138 0.076 6.52 0.8 7.84
8/7/2022 11:15:00 PM 23.35 74.03 0.075 6.46 0.91 7.84
8/7/2022 11:30:00 PM 23.29 73.922 0.075 6.51 0.87 7.85
8/7/2022 11:45:00 PM 23.24 73.832 0.075 6.5 0.81 7.87
8/8/2022 12:00:00 AM 23.17 73.706 0.075 6.51 0.88 7.87
8/8/2022 12:15:00 AM 23.12 73.616 0.075 6.51 0.8 7.88
8/8/2022 12:30:00 AM 23.06 73.508 0.075 6.51 0.93 7.87
8/8/2022 12:45:00 AM 23 73.4 0.075 6.44 0.96 7.9
8/8/2022 1:00:00 AM 22.96 73.328 0.075 6.5 0.9 7.91
8/8/2022 1:15:00 AM 22.9 73.22 0.075 6.5 1.13 7.92
8/8/2022 1:30:00 AM 22.85 73.13 0.075 6.46 0.78 7.94
8/8/2022 1:45:00 AM 22.79 73.022 0.075 6.5 0.84 7.94
8/8/2022 2:00:00 AM 22.74 72.932 0.075 6.5 0.81 7.95
8/8/2022 2:15:00 AM 22.68 72.824 0.075 6.49 0.92 7.93
8/8/2022 2:30:00 AM 22.63 72.734 0.075 6.5 0.99 7.97
8/8/2022 2:45:00 AM 22.58 72.644 0.075 6.49 0.88 7.97
8/8/2022 3:00:00 AM 22.52 72.536 0.075 6.5 0.87 8
8/8/2022 3:15:00 AM 22.46 72.42799 0.076 6.48 0.85 7.99
8/8/2022 3:30:00 AM 22.4 72.32 0.076 6.49 0.93 8.02
8/8/2022 3:45:00 AM 22.34 72.212 0.076 6.49 1.17 8
8/8/2022 4:00:00 AM 22.28 72.104 0.076 6.48 1.04 8.02
8/8/2022 4:15:00 AM 22.23 72.014 0.076 6.49 0.87 8.03
8/8/2022 4:30:00 AM 22.17 71.906 0.076 6.47 0.87 8.05
8/8/2022 4:45:00 AM 22.12 71.816 0.076 6.49 0.94 8.06
8/8/2022 5:00:00 AM 22.06 71.708 0.077 6.48 0.85 8.06
8/8/2022 5:15:00 AM 22.02 71.636 0.077 6.48 1.02 8.08
8/8/2022 5:30:00 AM 21.98 71.564 0.077 6.48 0.95 8.07
8/8/2022 5:45:00 AM 21.93 71.474 0.077 6.48 0.93 8.09
8/8/2022 6:00:00 AM 21.88 71.384 0.077 6.47 0.89 8.1
8/8/2022 6:15:00 AM 21.84 71.312 0.077 6.47 0.97 8.09
8/8/2022 6:30:00 AM 21.8 71.24 0.077 6.48 1.06 8.12
8/8/2022 6:45:00 AM 21.76 71.168 0.077 6.48 1.17 8.13
8/8/2022 7:00:00 AM 21.73 71.114 0.078 6.48 0.95 8.12
8/8/2022 7:15:00 AM 21.7 71.06 0.078 6.49 1 8.17
8/8/2022 7:30:00 AM 21.68 71.024 0.078 6.49 0.91 8.17
8/8/2022 7:45:00 AM 21.67 71.006 0.078 6.46 1.02 8.18
8/8/2022 8:00:00 AM -100000 -179968 -100000 -100000 -100000 -100000
8/8/2022 8:15:00 AM 21.67 71.006 0.078 6.48 0.95 8.25
8/8/2022 8:30:00 AM 21.68 71.024 0.078 6.5 1.07 8.27

These are provisional data and have not been subject to a quality assurance process, but rather are the raw data reported by the instrument.
H: value is above sensor operating range
L: value is below sensor operating range
Offline: station is not reporting data
NC: parameter is not collected at site

Data Availability & Limitations

Uncertainty and potential for error can be associated with environmental monitoring data. Provisional data have not been subject to a quality assurance process, but rather are the raw data reported by the instrument. Data users are cautioned to consider carefully the provisional nature of the information before using it for decisions that concern personal or public safety or the conduct of business that involves substantial monetary or operational consequences.

Approved data are currently available by request by emailing: srbc@srbc.net. Approved data have been subject to a quality assurance process to correct for equipment or fouling drift. Data recorded during equipment malfunctions have been removed.

View Historical Stations that have been discontinued.